Time;durP1;ratioP1;P1;durP2;ratioP2;P2;SDS_P1;SDS_P2;PMS_P1;PMS_P2;Temp;Humidity;BMP_temperature;BMP_pressure;BME280_temperature;BME280_humidity;BME280_pressure;Samples;Min_cycle;Max_cycle;Signal;HPM_P1;HPM_P2
2021/03/10 00:00:40;;;;;;;29.00;17.38;;;5.10;72.40;;;;;;5063362;28;20036;-73
2021/03/10 00:03:06;;;;;;;23.75;16.50;;;5.20;72.30;;;;;;5074345;28;20040;-72
2021/03/10 00:05:31;;;;;;;30.48;18.98;;;5.20;72.00;;;;;;5058535;28;20505;-73
2021/03/10 00:07:57;;;;;;;28.58;17.65;;;5.20;71.80;;;;;;5034615;28;20441;-72
2021/03/10 00:10:23;;;;;;;28.30;17.85;;;5.20;71.70;;;;;;5052307;28;20036;-72
2021/03/10 00:12:48;;;;;;;29.67;17.80;;;5.20;71.60;;;;;;5031902;28;573541;-72
2021/03/10 00:15:14;;;;;;;32.67;18.27;;;5.20;71.40;;;;;;5052653;28;20033;-72
2021/03/10 00:17:44;;;;;;;30.52;20.48;;;5.20;71.40;;;;;;5052598;28;20492;-73
2021/03/10 00:20:12;;;;;;;30.73;17.95;;;5.10;71.80;;;;;;5034675;28;20033;-72
2021/03/10 00:22:37;;;;;;;30.88;18.50;;;5.10;71.90;;;;;;5052431;28;20082;-73
2021/03/10 00:25:05;;;;;;;33.78;20.42;;;5.00;72.10;;;;;;5034409;28;20029;-72
2021/03/10 00:27:31;;;;;;;29.67;18.88;;;5.10;72.40;;;;;;5052440;28;20021;-72
2021/03/10 00:29:59;;;;;;;28.20;17.73;;;5.00;72.50;;;;;;5052631;28;20412;-72
2021/03/10 00:32:26;;;;;;;34.10;18.27;;;5.00;72.60;;;;;;5052418;28;20032;-72
2021/03/10 00:34:53;;;;;;;29.52;18.63;;;5.00;72.70;;;;;;5052241;28;20039;-73
2021/03/10 00:37:20;;;;;;;28.25;18.50;;;5.00;72.70;;;;;;5034385;28;20029;-72
2021/03/10 00:39:47;;;;;;;31.13;19.02;;;5.00;72.80;;;;;;5052379;28;20078;-73
2021/03/10 00:42:13;;;;;;;32.78;19.65;;;5.00;72.70;;;;;;5052133;28;20025;-72
2021/03/10 00:44:39;;;;;;;31.08;18.77;;;5.00;72.60;;;;;;5052190;28;20104;-72
2021/03/10 00:47:06;;;;;;;29.63;18.60;;;5.00;72.60;;;;;;5052165;28;20049;-72
2021/03/10 00:49:32;;;;;;;31.67;19.85;;;5.10;72.70;;;;;;5052111;28;20017;-72
2021/03/10 00:51:57;;;;;;;29.52;18.17;;;5.00;72.40;;;;;;5052051;28;20091;-72
2021/03/10 00:54:23;;;;;;;32.38;19.27;;;5.00;72.50;;;;;;5052244;28;20044;-71
2021/03/10 00:56:49;;;;;;;32.70;19.77;;;5.00;72.60;;;;;;5052117;28;20028;-72
2021/03/10 00:59:14;;;;;;;30.63;19.08;;;5.00;72.60;;;;;;5052016;28;20029;-72
2021/03/10 01:01:40;;;;;;;33.75;19.42;;;5.00;72.50;;;;;;5052110;28;20021;-72
2021/03/10 01:04:05;;;;;;;32.13;19.15;;;5.00;72.50;;;;;;5051962;28;20373;-71
2021/03/10 01:06:32;;;;;;;33.17;19.30;;;5.10;72.60;;;;;;5053691;28;20028;-71
2021/03/10 01:08:58;;;;;;;31.85;20.52;;;5.00;72.30;;;;;;5055696;28;20032;-71
2021/03/10 01:11:23;;;;;;;32.83;19.15;;;5.00;72.40;;;;;;5055821;28;20393;-72
2021/03/10 01:13:49;;;;;;;29.92;18.33;;;5.10;72.60;;;;;;5055512;28;20044;-71
2021/03/10 01:16:16;;;;;;;35.05;19.95;;;5.10;72.70;;;;;;5055771;28;20056;-71
2021/03/10 01:18:41;;;;;;;31.45;18.90;;;5.10;72.50;;;;;;5055944;28;20122;-73
2021/03/10 01:21:07;;;;;;;32.60;19.80;;;5.10;72.20;;;;;;5055641;28;20445;-73
2021/03/10 01:23:33;;;;;;;30.77;18.70;;;5.10;72.00;;;;;;5055828;28;20064;-72
2021/03/10 01:25:59;;;;;;;39.88;23.45;;;5.20;71.80;;;;;;5055644;28;20036;-72
2021/03/10 01:28:24;;;;;;;32.40;19.80;;;5.10;71.60;;;;;;5037922;28;20421;-73
2021/03/10 01:30:50;;;;;;;34.25;20.60;;;5.10;71.40;;;;;;5059128;28;20039;-72
2021/03/10 01:33:16;;;;;;;42.40;23.15;;;5.20;71.30;;;;;;5058159;28;20119;-72
2021/03/10 01:35:42;;;;;;;36.40;22.33;;;5.20;71.30;;;;;;5056369;28;20025;-72
2021/03/10 01:38:07;;;;;;;33.67;20.85;;;5.20;72.20;;;;;;5055235;28;20028;-73
2021/03/10 01:40:33;;;;;;;34.53;21.50;;;5.20;71.50;;;;;;5055184;28;20074;-73
2021/03/10 01:43:06;;;;;;;36.97;21.50;;;5.20;71.50;;;;;;5055214;28;20021;-73
2021/03/10 01:45:33;;;;;;;35.55;21.92;;;5.20;71.40;;;;;;5055192;28;20021;-73
2021/03/10 01:47:59;;;;;;;41.30;23.15;;;5.20;71.10;;;;;;5055160;28;20404;-73
2021/03/10 01:50:27;;;;;;;41.45;24.27;;;5.10;71.10;;;;;;5055138;28;20472;-73
2021/03/10 01:52:54;;;;;;;37.20;21.85;;;5.10;71.00;;;;;;5054953;28;20385;-72
2021/03/10 01:55:20;;;;;;;37.75;20.73;;;5.10;71.00;;;;;;5055123;28;20021;-73
2021/03/10 01:57:47;;;;;;;37.97;21.60;;;5.10;71.10;;;;;;5037093;28;20098;-72
2021/03/10 02:00:13;;;;;;;35.58;22.60;;;5.00;71.00;;;;;;5055051;28;20036;-72
2021/03/10 02:02:39;;;;;;;38.65;21.70;;;5.10;71.10;;;;;;5055048;28;20048;-73
2021/03/10 02:05:06;;;;;;;40.28;21.50;;;5.10;71.00;;;;;;5055729;28;20469;-73
2021/03/10 02:08:01;;;;;;;32.25;19.90;;;5.10;71.00;;;;;;5067588;28;20040;-73
2021/03/10 02:10:32;;;;;;;38.83;20.95;;;5.10;70.90;;;;;;5077976;28;20033;-73
2021/03/10 02:13:19;;;;;;;31.38;18.80;;;5.00;71.00;;;;;;5061300;28;20163;-73
2021/03/10 02:16:06;;;;;;;37.85;21.17;;;5.00;71.30;;;;;;5058095;28;20053;-73
2021/03/10 02:18:46;;;;;;;36.15;20.23;;;5.00;71.80;;;;;;5039989;28;20025;-72
2021/03/10 02:21:29;;;;;;;39.30;21.65;;;4.90;71.90;;;;;;5058249;28;20029;-72
2021/03/10 02:24:32;;;;;;;36.70;20.52;;;4.90;72.70;;;;;;5058704;28;20559;-72
2021/03/10 02:27:33;;;;;;;36.83;21.33;;;4.90;72.00;;;;;;5058611;28;20619;-72
2021/03/10 02:30:09;;;;;;;40.95;21.95;;;4.90;72.20;;;;;;5055402;28;20024;-73
2021/03/10 02:32:39;;;;;;;43.50;23.02;;;4.90;72.10;;;;;;5054479;28;20025;-72
2021/03/10 02:35:07;;;;;;;38.85;21.95;;;4.80;72.20;;;;;;5054355;28;20104;-72
2021/03/10 02:37:35;;;;;;;40.38;22.98;;;4.80;72.20;;;;;;5054429;28;20021;-73
2021/03/10 02:40:02;;;;;;;39.22;22.88;;;4.80;72.40;;;;;;5054191;28;20055;-72
2021/03/10 02:42:29;;;;;;;43.85;23.98;;;4.70;72.60;;;;;;5054196;28;20546;-73
2021/03/10 02:44:56;;;;;;;41.65;22.98;;;4.80;72.80;;;;;;5054211;28;20430;-73
2021/03/10 02:47:24;;;;;;;38.22;22.65;;;4.80;72.80;;;;;;5054049;28;20485;-73
2021/03/10 02:49:52;;;;;;;38.63;22.00;;;4.80;72.80;;;;;;5054342;28;20171;-73
2021/03/10 02:52:18;;;;;;;40.03;22.02;;;4.80;72.70;;;;;;5035925;28;20021;-73
2021/03/10 02:54:44;;;;;;;37.53;22.50;;;4.90;72.80;;;;;;5054234;28;20029;-73
2021/03/10 02:57:11;;;;;;;43.28;23.42;;;4.90;72.80;;;;;;5053893;28;20021;-73
2021/03/10 02:59:37;;;;;;;47.38;25.58;;;4.90;72.70;;;;;;5053931;28;20035;-73
2021/03/10 03:02:02;;;;;;;42.22;23.00;;;4.90;72.60;;;;;;5053733;28;20021;-73
2021/03/10 03:04:28;;;;;;;47.20;23.95;;;4.90;72.60;;;;;;5053943;28;20079;-73
2021/03/10 03:06:54;;;;;;;40.03;23.40;;;4.90;72.70;;;;;;5053625;28;20033;-73
2021/03/10 03:09:19;;;;;;;39.90;22.63;;;4.90;72.70;;;;;;5053599;28;20025;-73
2021/03/10 03:11:47;;;;;;;43.00;24.42;;;4.90;72.80;;;;;;5053580;28;20052;-73
2021/03/10 03:14:13;;;;;;;40.25;23.05;;;5.00;72.60;;;;;;5053090;28;20044;-73
2021/03/10 03:16:41;;;;;;;39.50;22.00;;;4.90;72.60;;;;;;5053451;28;20164;-72
2021/03/10 03:19:06;;;;;;;36.58;22.08;;;4.90;72.60;;;;;;5053385;28;20444;-73
2021/03/10 03:21:34;;;;;;;43.17;23.55;;;4.90;72.60;;;;;;5053444;28;20103;-73
2021/03/10 03:24:01;;;;;;;39.72;22.67;;;4.90;72.60;;;;;;5053369;28;20032;-73
2021/03/10 03:26:27;;;;;;;36.58;22.67;;;5.00;72.50;;;;;;5053229;28;20024;-72
2021/03/10 03:28:55;;;;;;;38.70;22.77;;;5.00;72.50;;;;;;5052686;28;20036;-73
2021/03/10 03:31:22;;;;;;;47.90;24.25;;;5.10;72.50;;;;;;5053157;28;20021;-73
2021/03/10 03:33:48;;;;;;;42.95;24.08;;;5.00;72.40;;;;;;5053205;28;20490;-73
2021/03/10 03:36:13;;;;;;;41.20;23.73;;;5.00;72.60;;;;;;5053042;28;20111;-73
2021/03/10 03:38:39;;;;;;;41.38;24.45;;;4.80;73.20;;;;;;5053167;28;20028;-73
2021/03/10 03:41:05;;;;;;;39.63;23.50;;;4.70;73.70;;;;;;5053010;28;20583;-73
2021/03/10 03:43:31;;;;;;;42.13;24.45;;;4.60;74.50;;;;;;5053129;28;20021;-74
2021/03/10 03:45:57;;;;;;;41.72;24.40;;;4.40;75.50;;;;;;5052841;28;20553;-73
2021/03/10 03:48:23;;;;;;;44.60;24.85;;;4.40;76.10;;;;;;5052902;28;20036;-73
2021/03/10 03:50:49;;;;;;;44.13;24.45;;;4.20;77.20;;;;;;5052783;28;20389;-73
2021/03/10 03:53:15;;;;;;;40.33;23.02;;;4.10;77.80;;;;;;5052734;28;20048;-73
2021/03/10 03:55:41;;;;;;;39.17;22.35;;;4.10;78.00;;;;;;5052794;28;20090;-74
2021/03/10 03:58:07;;;;;;;42.45;23.90;;;4.10;78.20;;;;;;5052646;28;20775;-73
2021/03/10 04:00:33;;;;;;;43.00;23.83;;;4.10;78.20;;;;;;5052718;28;20017;-73
2021/03/10 04:02:59;;;;;;;41.28;23.27;;;4.10;78.30;;;;;;5052632;28;20021;-72
2021/03/10 04:05:25;;;;;;;37.55;22.95;;;4.10;78.60;;;;;;5053751;28;20029;-72
2021/03/10 04:07:54;;;;;;;39.55;22.35;;;4.20;78.50;;;;;;5066852;28;20484;-73
2021/03/10 04:10:23;;;;;;;36.38;22.13;;;4.20;78.30;;;;;;5073160;28;20351;-72
2021/03/10 04:12:49;;;;;;;38.83;22.38;;;4.30;78.40;;;;;;5053880;28;20465;-73
2021/03/10 04:15:16;;;;;;;38.42;22.13;;;4.30;78.20;;;;;;5052755;28;20040;-72
2021/03/10 04:17:41;;;;;;;39.97;22.95;;;4.30;78.20;;;;;;5052608;28;20021;-72
2021/03/10 04:20:10;;;;;;;41.50;23.08;;;4.30;78.10;;;;;;5052423;28;20079;-73
2021/03/10 04:22:35;;;;;;;40.50;23.25;;;4.30;78.40;;;;;;5052501;28;20088;-73
2021/03/10 04:25:01;;;;;;;43.30;23.75;;;4.30;78.40;;;;;;5052395;28;20025;-73
2021/03/10 04:27:26;;;;;;;38.75;22.63;;;4.30;78.30;;;;;;5052447;28;20029;-72
2021/03/10 04:29:52;;;;;;;36.28;21.42;;;4.40;78.30;;;;;;5052264;28;20036;-72
2021/03/10 04:32:18;;;;;;;38.05;22.42;;;4.30;78.30;;;;;;5052392;28;20017;-73
2021/03/10 04:34:43;;;;;;;41.30;22.75;;;4.30;78.50;;;;;;5052022;28;20442;-72
2021/03/10 04:37:09;;;;;;;41.05;24.33;;;4.30;78.70;;;;;;5052122;28;20025;-73
2021/03/10 04:39:34;;;;;;;39.50;23.20;;;4.30;78.70;;;;;;5052220;28;20040;-72
2021/03/10 04:42:00;;;;;;;38.63;23.10;;;4.30;78.80;;;;;;5054500;28;20029;-73
2021/03/10 04:44:25;;;;;;;42.20;23.77;;;4.30;79.10;;;;;;5056164;28;20028;-72
2021/03/10 04:46:51;;;;;;;39.20;23.27;;;4.30;79.10;;;;;;5056106;28;20100;-73
2021/03/10 04:49:16;;;;;;;40.13;23.95;;;4.30;79.10;;;;;;5065928;28;20059;-72
2021/03/10 04:51:42;;;;;;;44.80;24.85;;;4.30;79.00;;;;;;5057473;28;20033;-73
2021/03/10 04:54:07;;;;;;;47.45;26.88;;;4.30;79.00;;;;;;5056600;28;20049;-73
2021/03/10 04:56:33;;;;;;;47.50;27.05;;;4.30;80.10;;;;;;5056384;28;20104;-74
2021/03/10 04:58:58;;;;;;;46.08;27.55;;;4.30;79.50;;;;;;5056089;28;20029;-73
2021/03/10 05:01:24;;;;;;;47.35;26.92;;;4.10;79.90;;;;;;5038154;28;20032;-73
2021/03/10 05:03:50;;;;;;;48.35;27.52;;;4.10;80.30;;;;;;5055843;28;20055;-73
2021/03/10 05:06:15;;;;;;;44.05;26.35;;;4.10;80.40;;;;;;5055835;28;20461;-73
2021/03/10 05:08:41;;;;;;;49.03;26.20;;;4.10;80.50;;;;;;5055919;28;20386;-73
2021/03/10 05:11:06;;;;;;;49.28;26.42;;;4.10;80.70;;;;;;5055769;28;20029;-73
2021/03/10 05:13:32;;;;;;;42.67;24.55;;;4.10;81.00;;;;;;5055857;28;20079;-73
2021/03/10 05:15:57;;;;;;;39.83;23.30;;;4.20;81.00;;;;;;5056151;28;20021;-73
2021/03/10 05:18:23;;;;;;;42.17;23.73;;;4.20;80.80;;;;;;5056160;28;20076;-73
2021/03/10 05:20:48;;;;;;;42.42;23.42;;;4.20;80.70;;;;;;5056191;28;20444;-72
2021/03/10 05:23:14;;;;;;;40.70;23.95;;;4.30;80.50;;;;;;5056159;28;20021;-73
2021/03/10 05:25:41;;;;;;;41.97;24.27;;;4.30;80.40;;;;;;5056097;28;20477;-73
2021/03/10 05:28:06;;;;;;;42.67;23.40;;;4.30;80.30;;;;;;5055977;28;20660;-73
2021/03/10 05:30:32;;;;;;;38.40;21.77;;;4.30;80.00;;;;;;5055907;28;20033;-73
2021/03/10 05:32:57;;;;;;;44.83;23.67;;;4.40;79.80;;;;;;5055890;28;20025;-73
2021/03/10 05:35:23;;;;;;;47.58;26.52;;;4.40;79.60;;;;;;5055891;28;20033;-73
2021/03/10 05:37:48;;;;;;;48.55;28.25;;;4.30;79.20;;;;;;5055710;28;20032;-73
2021/03/10 05:40:15;;;;;;;44.28;26.30;;;4.30;79.20;;;;;;5055756;28;20057;-73
2021/03/10 05:42:41;;;;;;;45.25;27.45;;;4.30;79.60;;;;;;5055572;28;20396;-73
2021/03/10 05:45:10;;;;;;;45.22;26.02;;;4.30;80.00;;;;;;5055663;28;20382;-73
2021/03/10 05:47:36;;;;;;;49.45;26.27;;;4.30;80.90;;;;;;5055532;28;20485;-73
2021/03/10 05:50:02;;;;;;;45.85;27.25;;;4.30;80.30;;;;;;5055558;28;20025;-73
2021/03/10 05:52:31;;;;;;;45.40;25.40;;;4.30;80.40;;;;;;5055143;28;20013;-73
2021/03/10 05:54:59;;;;;;;44.17;25.75;;;4.30;80.50;;;;;;5055441;28;20083;-74
2021/03/10 05:57:24;;;;;;;47.92;28.05;;;4.30;80.60;;;;;;5055455;28;20523;-74
2021/03/10 05:59:50;;;;;;;48.95;28.10;;;4.30;80.50;;;;;;5055225;28;20029;-73
2021/03/10 06:02:16;;;;;;;46.88;27.15;;;4.20;80.50;;;;;;5055291;28;20025;-73
2021/03/10 06:04:43;;;;;;;54.92;28.88;;;4.30;80.50;;;;;;5055061;28;20028;-73
2021/03/10 06:07:22;;;;;;;56.05;31.02;;;4.20;80.30;;;;;;5055217;28;20506;-73
2021/03/10 06:09:55;;;;;;;53.92;30.35;;;4.20;80.40;;;;;;5055168;28;20055;-73
2021/03/10 06:12:21;;;;;;;60.63;31.90;;;4.20;81.30;;;;;;5037494;28;20104;-73
2021/03/10 06:14:46;;;;;;;51.05;28.48;;;4.20;80.50;;;;;;5055002;28;20528;-73
2021/03/10 06:17:12;;;;;;;52.53;31.67;;;4.20;80.50;;;;;;5037037;28;20039;-73
2021/03/10 06:19:45;;;;;;;55.33;31.15;;;4.30;80.40;;;;;;5054695;28;20016;-73
2021/03/10 06:22:11;;;;;;;50.70;28.45;;;4.30;80.30;;;;;;5055487;28;20088;-74
2021/03/10 06:24:38;;;;;;;49.35;28.23;;;4.40;80.00;;;;;;5038723;28;20108;-74
2021/03/10 06:27:04;;;;;;;51.67;29.45;;;4.50;79.90;;;;;;5039902;28;20561;-72
2021/03/10 06:29:29;;;;;;;51.60;29.27;;;4.50;79.60;;;;;;5054580;28;20477;-70
2021/03/10 06:32:07;;;;;;;45.63;26.58;;;4.60;79.40;;;;;;5054570;28;20021;-70
2021/03/10 06:34:43;;;;;;;52.97;28.63;;;4.70;79.30;;;;;;5054087;28;20056;-73
2021/03/10 06:37:10;;;;;;;50.70;28.90;;;4.80;78.90;;;;;;5054331;28;20521;-72
2021/03/10 06:39:36;;;;;;;46.42;27.35;;;4.80;78.70;;;;;;5054792;28;20029;-72
2021/03/10 06:42:12;;;;;;;45.70;26.10;;;4.80;78.50;;;;;;5054597;28;20176;-73
2021/03/10 06:44:51;;;;;;;47.88;27.30;;;4.90;78.50;;;;;;5054591;28;20017;-73
2021/03/10 06:47:17;;;;;;;48.20;28.20;;;5.00;78.40;;;;;;5054466;28;20024;-72
2021/03/10 06:49:51;;;;;;;50.92;27.50;;;5.00;78.20;;;;;;5054449;28;20033;-73
2021/03/10 06:52:17;;;;;;;52.95;29.40;;;5.10;78.10;;;;;;5054500;28;20557;-73
2021/03/10 06:54:59;;;;;;;51.00;28.17;;;5.20;77.90;;;;;;5054181;28;20068;-73
2021/03/10 06:57:26;;;;;;;50.90;29.00;;;5.30;77.80;;;;;;5054243;28;20146;-75
2021/03/10 06:59:56;;;;;;;38.97;20.27;;;5.30;77.60;;;;;;5036183;28;20029;-73
2021/03/10 07:02:26;;;;;;;50.15;25.83;;;6.20;84.90;;;;;;5036337;28;20028;-72
2021/03/10 07:04:56;;;;;;;42.83;24.60;;;6.40;81.60;;;;;;5035184;28;20021;-73
2021/03/10 07:07:23;;;;;;;39.58;23.08;;;6.40;78.80;;;;;;5036154;28;20025;-74
2021/03/10 07:09:49;;;;;;;48.92;24.13;;;6.50;77.20;;;;;;5036278;28;20100;-73
2021/03/10 07:12:16;;;;;;;45.13;24.65;;;6.90;76.60;;;;;;5053996;28;20029;-75
2021/03/10 07:14:42;;;;;;;44.45;26.70;;;7.30;72.80;;;;;;5053717;28;20080;-74
2021/03/10 07:17:14;;;;;;;41.22;24.67;;;7.60;69.80;;;;;;5035541;28;20021;-73
2021/03/10 07:19:41;;;;;;;45.10;26.52;;;7.80;67.70;;;;;;5053561;28;20061;-72
2021/03/10 07:22:19;;;;;;;49.83;26.67;;;7.80;66.40;;;;;;5035762;28;20429;-73
2021/03/10 07:24:52;;;;;;;48.58;30.23;;;7.70;65.60;;;;;;5035825;28;20408;-73
2021/03/10 07:27:20;;;;;;;61.10;33.05;;;7.50;65.00;;;;;;5036063;28;20021;-73
2021/03/10 07:29:46;;;;;;;51.60;29.85;;;7.30;65.60;;;;;;5039073;28;20032;-73
2021/03/10 07:32:21;;;;;;;55.50;30.83;;;7.00;65.10;;;;;;5055735;28;20109;-73
2021/03/10 07:34:47;;;;;;;51.35;30.55;;;6.70;66.10;;;;;;5060904;28;20040;-73
2021/03/10 07:37:15;;;;;;;51.25;30.83;;;6.60;65.80;;;;;;5056075;28;20023;-74
2021/03/10 07:39:41;;;;;;;49.03;28.13;;;6.40;66.30;;;;;;5056755;28;20024;-74
2021/03/10 07:42:16;;;;;;;49.00;29.25;;;6.30;66.00;;;;;;5036923;28;20620;-73
2021/03/10 07:44:42;;;;;;;49.70;30.73;;;6.40;66.10;;;;;;5054304;28;20029;-73
2021/03/10 07:47:10;;;;;;;50.28;29.77;;;6.20;65.60;;;;;;5053325;28;20492;-73
2021/03/10 07:49:37;;;;;;;55.30;32.50;;;6.00;66.80;;;;;;5053774;28;20099;-73
2021/03/10 07:52:14;;;;;;;58.92;33.20;;;6.00;66.90;;;;;;5053530;28;20021;-73
2021/03/10 07:54:41;;;;;;;61.65;33.83;;;6.00;68.10;;;;;;5053319;28;20363;-74
2021/03/10 07:57:16;;;;;;;62.92;34.33;;;6.10;66.60;;;;;;5019142;28;20075;-74
2021/03/10 07:59:56;;;;;;;37.67;21.73;;;6.00;66.30;;;;;;5035451;28;20031;-73
2021/03/10 08:02:23;;;;;;;46.70;28.30;;;6.10;66.00;;;;;;5053127;28;20029;-74
2021/03/10 08:04:58;;;;;;;49.63;28.58;;;6.10;65.70;;;;;;5034756;28;20539;-73
2021/03/10 08:07:28;;;;;;;54.40;31.10;;;6.10;65.60;;;;;;5052643;28;20028;-73
2021/03/10 08:09:54;;;;;;;54.70;31.15;;;6.10;64.30;;;;;;5052380;28;20029;-73
2021/03/10 08:12:42;;;;;;;56.92;31.55;;;6.10;64.80;;;;;;5051772;28;20028;-74
2021/03/10 08:15:22;;;;;;;55.17;30.63;;;6.20;64.90;;;;;;5033870;28;20091;-73
2021/03/10 08:17:49;;;;;;;55.40;31.45;;;6.30;64.80;;;;;;5034059;28;20029;-73
2021/03/10 08:20:15;;;;;;;59.22;31.90;;;6.20;65.20;;;;;;5052301;28;20029;-73
2021/03/10 08:22:41;;;;;;;59.85;33.30;;;6.10;66.00;;;;;;5053914;28;20032;-73
2021/03/10 08:25:13;;;;;;;48.63;27.30;;;6.00;65.90;;;;;;5052584;28;20092;-73
2021/03/10 08:27:41;;;;;;;45.60;25.90;;;5.80;67.20;;;;;;5033237;28;20056;-73
2021/03/10 08:30:14;;;;;;;51.97;27.52;;;5.90;66.60;;;;;;5034782;28;20033;-73
2021/03/10 08:32:41;;;;;;;46.65;25.75;;;6.00;67.00;;;;;;5052836;28;20027;-73
2021/03/10 08:35:09;;;;;;;41.25;24.15;;;6.00;66.80;;;;;;5052331;28;20115;-74
2021/03/10 08:37:35;;;;;;;38.92;24.17;;;6.00;67.30;;;;;;5034923;28;20021;-73
2021/03/10 08:40:01;;;;;;;45.45;26.27;;;6.10;67.20;;;;;;5034908;28;20351;-73
2021/03/10 08:42:26;;;;;;;44.60;25.52;;;6.10;67.80;;;;;;5034324;28;20021;-72
2021/03/10 08:44:53;;;;;;;43.78;25.15;;;6.40;67.10;;;;;;5051324;28;20075;-73
2021/03/10 08:47:24;;;;;;;35.17;21.05;;;6.50;66.30;;;;;;5033814;28;20025;-75
2021/03/10 08:49:55;;;;;;;37.13;20.48;;;6.70;63.60;;;;;;5034047;28;20052;-72
2021/03/10 08:52:21;;;;;;;31.58;19.60;;;6.80;63.10;;;;;;5033982;28;20409;-72
2021/03/10 08:54:52;;;;;;;29.50;17.75;;;6.70;62.50;;;;;;5051292;28;20041;-73
2021/03/10 08:57:21;;;;;;;32.80;19.02;;;6.70;62.40;;;;;;5052173;28;20024;-72
2021/03/10 08:59:46;;;;;;;31.40;19.52;;;6.80;61.90;;;;;;5052297;28;20029;-72
2021/03/10 09:02:13;;;;;;;29.67;18.75;;;6.90;61.10;;;;;;5034398;28;20031;-73
2021/03/10 09:04:47;;;;;;;33.03;18.40;;;6.90;61.00;;;;;;5052466;28;20021;-72
2021/03/10 09:07:16;;;;;;;32.72;19.95;;;6.80;61.10;;;;;;5051997;28;20104;-73
2021/03/10 09:09:43;;;;;;;33.88;19.33;;;6.60;61.40;;;;;;5052015;28;20055;-73
2021/03/10 09:12:09;;;;;;;33.20;19.58;;;6.60;61.80;;;;;;5051150;28;20040;-74
2021/03/10 09:14:36;;;;;;;30.58;19.52;;;6.50;62.80;;;;;;5050770;28;20049;-72
2021/03/10 09:17:02;;;;;;;32.75;18.90;;;6.60;63.00;;;;;;5051126;28;20071;-73
2021/03/10 09:19:48;;;;;;;27.23;17.83;;;6.60;63.00;;;;;;5051077;28;20029;-73
2021/03/10 09:22:16;;;;;;;34.42;19.58;;;6.60;62.80;;;;;;5052033;28;20047;-74
2021/03/10 09:24:50;;;;;;;32.17;20.10;;;6.40;63.70;;;;;;5034054;28;20021;-73
2021/03/10 09:27:24;;;;;;;31.13;19.02;;;6.50;63.40;;;;;;5052919;28;20067;-73
2021/03/10 09:30:13;;;;;;;33.30;18.55;;;6.40;64.00;;;;;;5054270;28;20021;-71
2021/03/10 09:32:44;;;;;;;32.17;19.83;;;6.50;63.70;;;;;;5054452;28;20036;-71
2021/03/10 09:35:16;;;;;;;30.17;18.77;;;6.50;64.00;;;;;;5055062;28;20442;-73
2021/03/10 09:37:52;;;;;;;29.00;17.98;;;6.60;63.30;;;;;;5055145;28;20025;-72
2021/03/10 09:40:22;;;;;;;31.45;19.40;;;6.70;62.50;;;;;;5055406;28;20025;-73
2021/03/10 09:42:58;;;;;;;33.53;17.83;;;6.80;61.10;;;;;;5055341;28;20017;-72
2021/03/10 09:45:26;;;;;;;28.95;17.65;;;6.90;59.90;;;;;;5055527;28;20505;-72
2021/03/10 09:47:52;;;;;;;31.50;18.02;;;7.00;59.60;;;;;;5054565;28;20108;-72
2021/03/10 09:50:30;;;;;;;32.42;18.13;;;7.20;59.20;;;;;;5055484;28;20516;-71
2021/03/10 09:52:56;;;;;;;27.50;16.52;;;7.30;59.00;;;;;;5055261;28;20507;-72
2021/03/10 09:55:24;;;;;;;27.58;17.13;;;7.40;58.70;;;;;;5055415;28;20068;-74
2021/03/10 09:58:07;;;;;;;27.10;16.35;;;7.50;58.10;;;;;;5055062;28;20017;-73
2021/03/10 10:00:32;;;;;;;27.92;16.77;;;7.60;56.10;;;;;;5055136;28;20018;-73
2021/03/10 10:02:58;;;;;;;25.60;15.43;;;7.80;54.60;;;;;;5054946;28;20025;-73
2021/03/10 10:05:28;;;;;;;28.35;17.30;;;8.00;53.40;;;;;;5054589;28;20410;-73
2021/03/10 10:07:56;;;;;;;26.00;15.77;;;8.10;52.40;;;;;;5054397;28;20031;-71
2021/03/10 10:10:25;;;;;;;21.83;13.35;;;8.50;51.50;;;;;;5054951;28;20033;-74
2021/03/10 10:12:53;;;;;;;20.98;13.10;;;8.80;49.60;;;;;;5054375;28;20071;-72
2021/03/10 10:15:21;;;;;;;23.08;13.75;;;9.10;48.20;;;;;;5054942;28;20036;-72
2021/03/10 10:17:51;;;;;;;21.10;13.25;;;9.30;47.00;;;;;;5036801;28;20120;-72
2021/03/10 10:20:19;;;;;;;18.25;11.52;;;9.10;46.80;;;;;;5054887;28;20085;-72
2021/03/10 10:22:45;;;;;;;19.40;12.70;;;9.30;46.50;;;;;;5054988;28;20042;-72
2021/03/10 10:25:12;;;;;;;19.33;12.40;;;9.30;46.60;;;;;;5054602;28;20025;-74
2021/03/10 10:27:41;;;;;;;17.23;11.15;;;9.00;46.70;;;;;;5054563;28;20434;-72
2021/03/10 10:30:07;;;;;;;16.77;9.60;;;8.90;46.90;;;;;;5037563;28;20366;-72
2021/03/10 10:32:33;;;;;;;13.18;9.00;;;8.70;45.00;;;;;;5058103;28;20020;-72
2021/03/10 10:34:59;;;;;;;13.45;8.65;;;8.50;44.20;;;;;;5061042;28;20036;-72
2021/03/10 10:37:24;;;;;;;13.95;9.30;;;8.40;43.70;;;;;;5058537;28;20021;-73
2021/03/10 10:39:51;;;;;;;17.58;10.05;;;8.20;44.70;;;;;;5055237;28;20135;-72
2021/03/10 10:42:17;;;;;;;28.45;13.68;;;8.20;45.00;;;;;;5057730;28;20025;-72
2021/03/10 10:44:43;;;;;;;26.40;15.90;;;8.10;47.60;;;;;;5056678;28;20029;-73
2021/03/10 10:47:09;;;;;;;27.75;17.77;;;8.00;50.80;;;;;;5054596;28;20037;-72
2021/03/10 10:49:35;;;;;;;27.20;15.27;;;7.90;53.20;;;;;;5054295;28;20025;-73
2021/03/10 10:52:00;;;;;;;27.33;15.18;;;7.80;54.10;;;;;;5054587;28;20075;-73
2021/03/10 10:54:26;;;;;;;25.38;15.73;;;7.70;54.40;;;;;;5054222;28;20082;-73
2021/03/10 10:56:51;;;;;;;23.00;14.05;;;7.80;54.70;;;;;;5054280;28;20056;-73
2021/03/10 10:59:17;;;;;;;19.17;12.25;;;7.90;54.30;;;;;;5054224;28;20064;-73
2021/03/10 11:01:43;;;;;;;20.60;11.93;;;8.00;53.00;;;;;;5054172;28;20070;-72
2021/03/10 11:04:09;;;;;;;20.38;11.85;;;8.00;51.30;;;;;;5053714;28;20481;-72
2021/03/10 11:06:35;;;;;;;18.73;11.70;;;8.00;50.40;;;;;;5035727;28;20031;-73
2021/03/10 11:09:00;;;;;;;21.08;11.57;;;8.00;50.50;;;;;;5053711;28;20104;-73
2021/03/10 11:11:26;;;;;;;20.23;11.10;;;8.00;50.10;;;;;;5053697;28;20029;-72
2021/03/10 11:13:51;;;;;;;18.75;10.77;;;8.00;49.90;;;;;;5053228;28;20048;-73
2021/03/10 11:16:17;;;;;;;19.20;10.95;;;8.00;50.80;;;;;;5053631;28;20029;-73
2021/03/10 11:18:42;;;;;;;17.98;10.13;;;8.00;50.30;;;;;;5053701;28;20382;-73
2021/03/10 11:21:08;;;;;;;16.95;9.80;;;8.00;50.40;;;;;;5053736;28;20039;-73
2021/03/10 11:23:34;;;;;;;17.00;8.90;;;8.10;49.40;;;;;;5054477;28;20064;-74
2021/03/10 11:26:01;;;;;;;14.27;8.55;;;8.00;47.70;;;;;;5053713;28;20032;-72
2021/03/10 11:28:26;;;;;;;17.42;8.55;;;8.00;46.70;;;;;;5053639;28;20029;-72
2021/03/10 11:30:52;;;;;;;17.95;9.80;;;8.00;45.70;;;;;;5053473;28;20029;-72
2021/03/10 11:33:17;;;;;;;15.90;9.57;;;8.10;45.70;;;;;;5053746;28;20507;-73
2021/03/10 11:35:43;;;;;;;12.85;7.88;;;8.30;44.40;;;;;;5053877;28;20025;-73
2021/03/10 11:38:09;;;;;;;13.20;8.50;;;8.40;43.30;;;;;;5053121;28;20028;-74
2021/03/10 11:40:36;;;;;;;16.55;9.50;;;8.40;43.50;;;;;;5053589;28;20029;-73
2021/03/10 11:43:03;;;;;;;16.73;9.77;;;8.40;43.70;;;;;;5053392;28;20025;-72
2021/03/10 11:45:29;;;;;;;14.98;9.40;;;8.40;44.60;;;;;;5053272;28;20029;-72
2021/03/10 11:47:55;;;;;;;14.77;8.98;;;8.50;44.60;;;;;;5035018;28;20029;-73
2021/03/10 11:50:20;;;;;;;13.35;8.07;;;8.40;44.10;;;;;;5052843;28;20380;-72
2021/03/10 11:52:46;;;;;;;14.75;8.52;;;8.30;43.70;;;;;;5053223;28;20090;-73
2021/03/10 11:55:13;;;;;;;14.70;8.82;;;8.50;43.00;;;;;;5053290;28;20456;-73
2021/03/10 11:57:39;;;;;;;13.20;8.68;;;8.80;42.80;;;;;;5053144;28;20021;-72
2021/03/10 12:00:06;;;;;;;15.57;9.80;;;8.90;42.40;;;;;;5052972;28;20025;-73
2021/03/10 12:02:32;;;;;;;13.68;8.75;;;8.80;42.40;;;;;;5053031;28;20485;-72
2021/03/10 12:04:58;;;;;;;12.48;7.93;;;8.80;42.20;;;;;;5053007;28;20079;-71
2021/03/10 12:07:23;;;;;;;13.52;8.00;;;9.20;41.40;;;;;;5053320;28;20083;-72
2021/03/10 12:09:49;;;;;;;10.88;7.47;;;9.40;40.60;;;;;;5035169;28;20162;-74
2021/03/10 12:12:15;;;;;;;12.65;7.72;;;9.40;40.70;;;;;;5052863;28;20021;-72
2021/03/10 12:14:40;;;;;;;14.35;8.05;;;9.40;40.10;;;;;;5052633;28;20048;-72
2021/03/10 12:17:06;;;;;;;10.75;7.70;;;9.50;39.70;;;;;;5034612;28;20025;-72
2021/03/10 12:19:32;;;;;;;12.65;8.20;;;9.70;39.40;;;;;;5052614;28;20083;-74
2021/03/10 12:21:58;;;;;;;12.63;8.38;;;9.70;39.30;;;;;;5052409;28;20013;-74
2021/03/10 12:24:24;;;;;;;12.88;8.68;;;9.90;39.30;;;;;;5052342;28;20021;-72
2021/03/10 12:26:49;;;;;;;13.05;7.55;;;10.20;38.90;;;;;;5050838;28;20021;-72
2021/03/10 12:29:15;;;;;;;12.80;8.48;;;10.60;38.40;;;;;;5052509;28;20025;-72
2021/03/10 12:31:40;;;;;;;13.63;7.45;;;11.00;37.90;;;;;;5052530;28;20470;-72
2021/03/10 12:34:06;;;;;;;10.20;7.00;;;11.40;37.00;;;;;;5052481;28;20033;-73
2021/03/10 12:36:31;;;;;;;12.35;7.60;;;11.50;36.30;;;;;;5052594;28;20028;-72
2021/03/10 12:38:57;;;;;;;12.95;6.82;;;11.50;36.00;;;;;;5052644;28;20025;-72
2021/03/10 12:41:23;;;;;;;11.32;6.43;;;11.50;35.80;;;;;;5052723;28;20035;-74